Time;durP1;ratioP1;P1;durP2;ratioP2;P2;SDS_P1;SDS_P2;PMS_P1;PMS_P2;Temp;Humidity;BMP_temperature;BMP_pressure;BME280_temperature;BME280_humidity;BME280_pressure;Samples;Min_cycle;Max_cycle;Signal;HPM_P1;HPM_P2
2023/05/10 00:00:54;;;;;;;21.95;12.65;;;;;;;;;;5054555;28;20140;-72
2023/05/10 00:03:20;;;;;;;19.38;11.60;;;;;;;;;;5056904;28;20539;-72
2023/05/10 00:05:46;;;;;;;20.35;12.20;;;;;;;;;;5057670;28;20120;-72
2023/05/10 00:08:12;;;;;;;18.65;11.43;;;;;;;;;;5076968;28;20064;-72
2023/05/10 00:10:38;;;;;;;17.95;11.50;;;;;;;;;;5075405;28;20045;-72
2023/05/10 00:13:04;;;;;;;17.00;10.60;;;;;;;;;;5077182;28;20102;-72
2023/05/10 00:15:30;;;;;;;14.48;10.00;;;;;;;;;;5075635;28;20064;-72
2023/05/10 00:17:57;;;;;;;14.32;9.75;;;;;;;;;;5075976;28;20109;-72
2023/05/10 00:20:23;;;;;;;13.88;10.02;;;;;;;;;;5076652;28;20075;-72
2023/05/10 00:22:49;;;;;;;13.45;9.63;;;;;;;;;;5076846;28;20416;-72
2023/05/10 00:25:15;;;;;;;10.88;8.27;;;;;;;;;;5075039;28;20064;-72
2023/05/10 00:27:41;;;;;;;11.63;8.80;;;;;;;;;;5074944;28;20048;-72
2023/05/10 00:30:07;;;;;;;12.30;8.98;;;;;;;;;;5075068;28;20041;-72
2023/05/10 00:32:33;;;;;;;9.40;8.13;;;;;;;;;;5076328;28;20044;-72
2023/05/10 00:34:59;;;;;;;10.52;8.02;;;;;;;;;;5068770;28;20044;-72
2023/05/10 00:37:25;;;;;;;9.13;8.07;;;;;;;;;;5075967;28;20052;-72
2023/05/10 00:39:51;;;;;;;8.35;7.43;;;;;;;;;;5056669;28;20510;-72
2023/05/10 00:42:17;;;;;;;9.07;8.00;;;;;;;;;;5056520;28;20049;-72
2023/05/10 00:44:43;;;;;;;9.77;7.88;;;;;;;;;;5071742;28;20124;-73
2023/05/10 00:47:09;;;;;;;8.55;7.10;;;;;;;;;;5058287;28;20143;-73
2023/05/10 00:49:36;;;;;;;6.70;5.95;;;;;;;;;;5076415;28;20417;-73
2023/05/10 00:52:02;;;;;;;5.65;5.15;;;;;;;;;;5057949;28;20044;-73
2023/05/10 00:54:29;;;;;;;5.63;5.13;;;;;;;;;;5074667;28;20529;-73
2023/05/10 00:56:56;;;;;;;5.10;4.60;;;;;;;;;;5076003;28;20045;-73
2023/05/10 00:59:22;;;;;;;4.60;4.00;;;;;;;;;;5072135;28;20045;-73
2023/05/10 01:01:48;;;;;;;4.45;4.05;;;;;;;;;;5056208;28;20128;-73
2023/05/10 01:04:15;;;;;;;4.30;3.90;;;;;;;;;;5054866;28;20091;-73
2023/05/10 01:06:42;;;;;;;4.70;4.30;;;;;;;;;;5069015;28;20052;-73
2023/05/10 01:09:08;;;;;;;4.85;4.13;;;;;;;;;;5076063;28;20052;-73
2023/05/10 01:11:38;;;;;;;4.88;4.47;;;;;;;;;;5074563;28;20374;-73
2023/05/10 01:14:05;;;;;;;5.05;4.65;;;;;;;;;;5063860;28;20124;-73
2023/05/10 01:16:34;;;;;;;5.63;5.13;;;;;;;;;;5075613;28;20467;-73
2023/05/10 01:19:00;;;;;;;5.07;4.60;;;;;;;;;;5075605;28;20498;-73
2023/05/10 01:21:39;;;;;;;5.65;5.15;;;;;;;;;;5042659;28;20048;-73
2023/05/10 01:24:11;;;;;;;6.32;5.72;;;;;;;;;;5054993;28;20045;-73
2023/05/10 01:26:40;;;;;;;6.65;6.05;;;;;;;;;;5055636;28;20045;-73
2023/05/10 01:29:17;;;;;;;7.47;6.68;;;;;;;;;;5070945;28;20413;-73
2023/05/10 01:31:58;;;;;;;8.55;7.65;;;;;;;;;;5075343;28;20483;-73
2023/05/10 01:34:35;;;;;;;9.80;8.80;;;;;;;;;;5075627;28;20044;-73
2023/05/10 01:37:06;;;;;;;11.15;9.40;;;;;;;;;;5075422;28;20048;-73
2023/05/10 01:39:37;;;;;;;10.75;9.35;;;;;;;;;;5075492;28;20044;-73
2023/05/10 01:42:05;;;;;;;13.45;10.48;;;;;;;;;;5055296;28;20048;-73
2023/05/10 01:44:35;;;;;;;15.68;11.20;;;;;;;;;;5060918;28;20110;-73
2023/05/10 01:47:11;;;;;;;14.43;11.55;;;;;;;;;;5075412;28;20516;-73
2023/05/10 01:49:42;;;;;;;15.03;11.83;;;;;;;;;;5075144;28;20040;-73
2023/05/10 01:52:11;;;;;;;16.73;11.93;;;;;;;;;;5074001;28;20047;-73
2023/05/10 01:54:39;;;;;;;15.77;11.55;;;;;;;;;;5065372;28;20044;-73
2023/05/10 01:57:08;;;;;;;17.15;12.00;;;;;;;;;;5057535;28;20046;-73
2023/05/10 01:59:41;;;;;;;15.52;11.93;;;;;;;;;;5075173;28;20044;-73
2023/05/10 02:02:11;;;;;;;14.63;11.25;;;;;;;;;;5074650;28;20471;-73
2023/05/10 02:04:37;;;;;;;14.55;11.40;;;;;;;;;;5060489;28;20045;-73
2023/05/10 02:07:04;;;;;;;13.05;10.68;;;;;;;;;;5019819;28;20394;-73
2023/05/10 02:09:31;;;;;;;9.95;8.95;;;;;;;;;;5055227;28;20053;-73
2023/05/10 02:11:58;;;;;;;9.52;8.60;;;;;;;;;;5054534;28;20041;-73
2023/05/10 02:14:26;;;;;;;11.95;8.85;;;;;;;;;;5054945;28;20128;-73
2023/05/10 02:16:53;;;;;;;9.73;8.73;;;;;;;;;;5054990;28;20041;-73
2023/05/10 02:19:19;;;;;;;10.13;9.18;;;;;;;;;;5067788;28;20045;-73
2023/05/10 02:21:46;;;;;;;9.05;8.13;;;;;;;;;;5074828;28;20048;-73
2023/05/10 02:24:13;;;;;;;9.27;8.30;;;;;;;;;;5065792;28;20051;-73
2023/05/10 02:26:40;;;;;;;10.23;8.48;;;;;;;;;;5046716;28;20271;-73
2023/05/10 02:29:07;;;;;;;9.00;7.07;;;;;;;;;;5041221;28;20421;-73
2023/05/10 02:31:33;;;;;;;7.65;6.85;;;;;;;;;;5078472;28;20044;-73
2023/05/10 02:34:00;;;;;;;7.40;6.70;;;;;;;;;;5078277;28;20051;-73
2023/05/10 02:36:27;;;;;;;7.70;6.43;;;;;;;;;;5075743;28;20048;-73
2023/05/10 02:38:54;;;;;;;6.30;5.70;;;;;;;;;;5070521;28;20036;-73
2023/05/10 02:41:22;;;;;;;5.72;5.13;;;;;;;;;;5074238;28;20417;-73
2023/05/10 02:43:50;;;;;;;6.50;4.93;;;;;;;;;;5074103;28;20056;-73
2023/05/10 02:46:16;;;;;;;5.32;4.82;;;;;;;;;;5059773;28;20041;-73
2023/05/10 02:48:42;;;;;;;6.57;4.80;;;;;;;;;;5062587;28;20052;-73
2023/05/10 02:51:08;;;;;;;5.80;4.95;;;;;;;;;;5073694;28;20076;-73
2023/05/10 02:53:37;;;;;;;6.40;5.10;;;;;;;;;;5066240;28;20041;-73
2023/05/10 02:56:06;;;;;;;6.60;6.00;;;;;;;;;;5066200;28;20047;-73
2023/05/10 02:58:33;;;;;;;7.72;6.72;;;;;;;;;;5055607;28;20045;-73
2023/05/10 03:01:00;;;;;;;7.97;6.82;;;;;;;;;;5054205;28;20090;-73
2023/05/10 03:03:26;;;;;;;9.65;7.68;;;;;;;;;;5054357;28;20041;-73
2023/05/10 03:05:55;;;;;;;8.60;7.70;;;;;;;;;;5054964;28;20041;-73
2023/05/10 03:08:21;;;;;;;9.55;8.55;;;;;;;;;;5065221;28;20142;-73
2023/05/10 03:11:00;;;;;;;10.13;9.07;;;;;;;;;;5053901;28;20041;-73
2023/05/10 03:13:37;;;;;;;12.90;9.70;;;;;;;;;;5052871;28;20049;-73
2023/05/10 03:16:11;;;;;;;12.65;9.13;;;;;;;;;;5042253;28;20088;-74
2023/05/10 03:18:43;;;;;;;11.07;8.73;;;;;;;;;;5063842;28;20059;-73
2023/05/10 03:21:12;;;;;;;9.55;8.57;;;;;;;;;;5073947;28;20071;-73
2023/05/10 03:23:42;;;;;;;11.25;8.95;;;;;;;;;;5071321;28;20052;-73
2023/05/10 03:26:09;;;;;;;11.02;8.75;;;;;;;;;;5073173;28;20059;-74
2023/05/10 03:28:35;;;;;;;9.95;8.52;;;;;;;;;;5052034;28;20047;-73
2023/05/10 03:31:03;;;;;;;11.05;8.57;;;;;;;;;;5053688;28;20454;-73
2023/05/10 03:33:29;;;;;;;13.80;9.30;;;;;;;;;;5053403;28;20045;-74
2023/05/10 03:35:55;;;;;;;12.95;9.13;;;;;;;;;;5053557;28;20098;-73
2023/05/10 03:38:21;;;;;;;13.43;10.00;;;;;;;;;;5052987;28;20037;-74
2023/05/10 03:40:47;;;;;;;14.10;10.48;;;;;;;;;;5053379;28;20434;-73
2023/05/10 03:43:13;;;;;;;16.15;12.18;;;;;;;;;;5050419;28;20076;-73
2023/05/10 03:45:39;;;;;;;16.48;11.70;;;;;;;;;;5071521;28;20094;-73
2023/05/10 03:48:05;;;;;;;17.05;12.25;;;;;;;;;;5066414;28;20051;-72
2023/05/10 03:50:31;;;;;;;17.63;12.98;;;;;;;;;;5071321;28;20041;-72
2023/05/10 03:52:57;;;;;;;14.98;11.90;;;;;;;;;;5072505;28;20037;-72
2023/05/10 03:55:24;;;;;;;12.70;10.30;;;;;;;;;;5073585;28;20041;-72
2023/05/10 03:57:50;;;;;;;12.02;10.40;;;;;;;;;;5054705;28;20048;-72
2023/05/10 04:00:16;;;;;;;10.95;8.60;;;;;;;;;;5073259;28;20048;-72
2023/05/10 04:02:42;;;;;;;10.02;7.93;;;;;;;;;;5055609;28;20048;-72
2023/05/10 04:05:08;;;;;;;9.98;7.75;;;;;;;;;;5050487;28;20053;-72
2023/05/10 04:07:34;;;;;;;10.88;8.43;;;;;;;;;;5053007;28;20531;-72
2023/05/10 04:10:00;;;;;;;13.30;9.55;;;;;;;;;;5053047;28;20483;-72
2023/05/10 04:12:27;;;;;;;23.80;13.15;;;;;;;;;;5054240;28;20044;-72
2023/05/10 04:14:53;;;;;;;20.83;13.95;;;;;;;;;;5072542;28;20049;-72
2023/05/10 04:17:19;;;;;;;20.88;14.50;;;;;;;;;;5073096;28;20055;-72
2023/05/10 04:19:45;;;;;;;21.70;15.20;;;;;;;;;;5042840;28;20450;-72
2023/05/10 04:22:11;;;;;;;18.83;13.38;;;;;;;;;;5053325;28;20123;-72
2023/05/10 04:24:37;;;;;;;16.02;11.80;;;;;;;;;;5066651;28;20068;-72
2023/05/10 04:27:03;;;;;;;13.85;10.43;;;;;;;;;;5060594;28;20099;-72
2023/05/10 04:29:29;;;;;;;15.02;9.57;;;;;;;;;;5073197;28;20037;-71
2023/05/10 04:31:56;;;;;;;12.77;9.73;;;;;;;;;;5076660;28;20051;-71
2023/05/10 04:34:22;;;;;;;11.75;8.63;;;;;;;;;;5075084;28;20455;-71
2023/05/10 04:36:48;;;;;;;11.57;8.82;;;;;;;;;;5076852;28;20048;-72
2023/05/10 04:39:14;;;;;;;13.73;9.82;;;;;;;;;;5076677;28;20487;-72
2023/05/10 04:41:40;;;;;;;24.02;13.10;;;;;;;;;;5057975;28;20128;-71
2023/05/10 04:44:06;;;;;;;27.20;13.05;;;;;;;;;;5076376;28;20044;-72
2023/05/10 04:46:32;;;;;;;35.22;14.13;;;;;;;;;;5076282;28;20045;-72
2023/05/10 04:48:58;;;;;;;34.15;14.60;;;;;;;;;;5058438;28;20048;-72
2023/05/10 04:51:24;;;;;;;30.85;16.65;;;;;;;;;;5041749;28;20101;-72
2023/05/10 04:53:50;;;;;;;35.47;18.85;;;;;;;;;;5058251;28;20119;-72
2023/05/10 04:56:16;;;;;;;33.80;19.52;;;;;;;;;;5062594;28;20130;-72
2023/05/10 04:58:42;;;;;;;33.65;20.25;;;;;;;;;;5075835;28;20048;-72
2023/05/10 05:01:10;;;;;;;27.65;19.77;;;;;;;;;;5072327;28;20051;-73
2023/05/10 05:03:36;;;;;;;26.63;20.38;;;;;;;;;;5058084;28;20481;-73
2023/05/10 05:06:02;;;;;;;29.15;22.05;;;;;;;;;;5075225;28;20499;-73
2023/05/10 05:08:28;;;;;;;32.53;21.50;;;;;;;;;;5075687;28;20433;-73
2023/05/10 05:10:54;;;;;;;36.70;18.75;;;;;;;;;;5076009;28;20040;-73
2023/05/10 05:13:20;;;;;;;33.80;16.40;;;;;;;;;;5076039;28;20044;-73
2023/05/10 05:15:47;;;;;;;27.70;15.90;;;;;;;;;;5068724;28;20514;-73
2023/05/10 05:18:13;;;;;;;17.10;14.18;;;;;;;;;;5038049;28;20049;-73
2023/05/10 05:20:39;;;;;;;14.63;11.23;;;;;;;;;;5056084;28;20053;-73
2023/05/10 05:23:05;;;;;;;8.80;7.90;;;;;;;;;;5075745;28;20431;-73
2023/05/10 05:25:32;;;;;;;8.43;7.20;;;;;;;;;;5066114;28;20479;-73
2023/05/10 05:27:58;;;;;;;8.25;7.00;;;;;;;;;;5055565;28;20048;-73
2023/05/10 05:30:24;;;;;;;8.77;7.65;;;;;;;;;;5042763;28;20418;-73
2023/05/10 05:32:50;;;;;;;10.85;9.00;;;;;;;;;;5075777;28;20040;-73
2023/05/10 05:35:16;;;;;;;12.18;9.15;;;;;;;;;;5074914;28;20046;-73
2023/05/10 05:37:42;;;;;;;13.90;9.98;;;;;;;;;;5055445;28;20049;-73
2023/05/10 05:40:08;;;;;;;13.55;9.98;;;;;;;;;;5054605;28;20094;-73
2023/05/10 05:42:34;;;;;;;14.40;10.48;;;;;;;;;;5055005;28;20040;-73
2023/05/10 05:45:00;;;;;;;16.88;11.73;;;;;;;;;;5059683;28;20049;-73
2023/05/10 05:47:26;;;;;;;12.85;10.48;;;;;;;;;;5058150;28;20048;-73
2023/05/10 05:49:52;;;;;;;12.18;10.20;;;;;;;;;;5076481;28;20032;-72
2023/05/10 05:52:18;;;;;;;10.95;8.80;;;;;;;;;;5076777;28;20471;-72
2023/05/10 05:54:44;;;;;;;9.95;8.45;;;;;;;;;;5079672;28;20128;-72
2023/05/10 05:57:10;;;;;;;11.70;8.43;;;;;;;;;;5058865;28;20048;-71
2023/05/10 05:59:41;;;;;;;8.50;7.60;;;;;;;;;;5072668;28;20056;-71
2023/05/10 06:02:07;;;;;;;8.50;7.05;;;;;;;;;;5055861;28;20060;-71
2023/05/10 06:04:33;;;;;;;8.20;6.88;;;;;;;;;;5054460;28;20549;-71
2023/05/10 06:06:59;;;;;;;7.35;6.07;;;;;;;;;;5056065;28;20041;-71
2023/05/10 06:09:25;;;;;;;6.85;5.72;;;;;;;;;;5054797;28;20080;-71
2023/05/10 06:11:51;;;;;;;7.03;5.32;;;;;;;;;;5019201;28;20048;-72
2023/05/10 06:14:17;;;;;;;5.85;5.20;;;;;;;;;;5054399;28;20048;-72
2023/05/10 06:16:43;;;;;;;5.63;4.82;;;;;;;;;;5036754;28;20053;-73
2023/05/10 06:19:09;;;;;;;6.60;4.90;;;;;;;;;;5017240;28;20065;-73
2023/05/10 06:21:35;;;;;;;7.18;5.10;;;;;;;;;;5033647;28;20049;-73
2023/05/10 06:24:02;;;;;;;7.43;5.32;;;;;;;;;;5036657;28;20044;-73
2023/05/10 06:26:28;;;;;;;5.97;5.35;;;;;;;;;;5017069;28;20056;-73
2023/05/10 06:28:54;;;;;;;7.88;5.35;;;;;;;;;;5000246;28;20136;-73
2023/05/10 06:31:20;;;;;;;8.35;5.60;;;;;;;;;;5032290;28;20150;-73
2023/05/10 06:33:47;;;;;;;7.18;5.50;;;;;;;;;;5053503;28;20554;-73
2023/05/10 06:36:13;;;;;;;7.80;6.00;;;;;;;;;;5040221;28;20121;-74
2023/05/10 06:38:39;;;;;;;7.90;6.38;;;;;;;;;;5043890;28;20037;-73
2023/05/10 06:41:05;;;;;;;9.20;6.85;;;;;;;;;;5074204;28;20540;-76
2023/05/10 06:43:31;;;;;;;8.00;5.20;;;;;;;;;;5052039;28;20049;-74
2023/05/10 06:45:57;;;;;;;8.07;5.85;;;;;;;;;;5029041;28;20049;-74
2023/05/10 06:48:23;;;;;;;6.45;5.75;;;;;;;;;;5043121;28;20088;-74
2023/05/10 06:50:49;;;;;;;7.43;6.22;;;;;;;;;;5033853;28;20395;-74
2023/05/10 06:53:16;;;;;;;6.78;6.07;;;;;;;;;;5040969;28;20044;-74
2023/05/10 06:55:42;;;;;;;9.45;7.03;;;;;;;;;;5044915;28;20045;-74
2023/05/10 06:58:08;;;;;;;10.55;7.93;;;;;;;;;;5050257;28;20127;-74
2023/05/10 07:00:34;;;;;;;8.93;7.85;;;;;;;;;;5046361;28;20402;-74
2023/05/10 07:03:00;;;;;;;10.25;8.20;;;;;;;;;;5049538;28;20503;-74
2023/05/10 07:05:27;;;;;;;10.85;8.55;;;;;;;;;;5063326;28;20072;-74
2023/05/10 07:07:53;;;;;;;9.80;8.02;;;;;;;;;;5050133;28;20053;-74
2023/05/10 07:10:19;;;;;;;9.65;8.25;;;;;;;;;;5070183;28;20064;-74
2023/05/10 07:12:45;;;;;;;9.07;7.47;;;;;;;;;;5026874;28;20119;-74
2023/05/10 07:15:12;;;;;;;8.10;6.85;;;;;;;;;;5073309;28;20041;-74
2023/05/10 07:17:38;;;;;;;9.40;7.50;;;;;;;;;;5061727;28;20048;-74
2023/05/10 07:20:04;;;;;;;9.57;7.60;;;;;;;;;;5069257;28;20466;-74
2023/05/10 07:22:31;;;;;;;9.52;6.90;;;;;;;;;;5055859;28;20048;-74
2023/05/10 07:24:57;;;;;;;9.23;7.10;;;;;;;;;;5061976;28;20379;-74
2023/05/10 07:27:23;;;;;;;8.20;7.32;;;;;;;;;;5072111;28;20470;-74
2023/05/10 07:29:49;;;;;;;9.80;7.13;;;;;;;;;;5064372;28;20143;-74
2023/05/10 07:32:15;;;;;;;7.80;7.00;;;;;;;;;;5049465;28;20410;-74
2023/05/10 07:34:41;;;;;;;9.98;7.13;;;;;;;;;;5072807;28;20045;-74
2023/05/10 07:37:07;;;;;;;9.38;7.13;;;;;;;;;;5053391;28;20056;-75
2023/05/10 07:39:33;;;;;;;10.75;7.68;;;;;;;;;;5055192;28;20037;-73
2023/05/10 07:41:59;;;;;;;9.40;7.32;;;;;;;;;;5069060;28;20102;-73
2023/05/10 07:44:25;;;;;;;7.53;6.45;;;;;;;;;;5073407;28;20036;-73
2023/05/10 07:46:52;;;;;;;7.25;5.90;;;;;;;;;;5071841;28;20048;-77
2023/05/10 07:49:18;;;;;;;7.97;6.05;;;;;;;;;;5072350;28;20495;-74
2023/05/10 07:51:44;;;;;;;7.18;5.90;;;;;;;;;;5052539;28;20033;-74
2023/05/10 07:54:10;;;;;;;7.07;6.10;;;;;;;;;;5063738;28;20037;-73
2023/05/10 07:56:36;;;;;;;8.85;6.30;;;;;;;;;;5051858;28;20080;-73
2023/05/10 07:59:06;;;;;;;7.70;6.03;;;;;;;;;;5035722;28;20486;-73
2023/05/10 08:01:33;;;;;;;7.80;6.13;;;;;;;;;;5061430;28;20463;-73
2023/05/10 08:03:59;;;;;;;6.85;6.00;;;;;;;;;;5083714;28;20372;-74
2023/05/10 08:06:29;;;;;;;7.25;6.05;;;;;;;;;;5068281;28;20051;-74
2023/05/10 08:08:55;;;;;;;6.70;5.50;;;;;;;;;;5069315;28;20494;-73
2023/05/10 08:11:22;;;;;;;7.13;5.57;;;;;;;;;;5050715;28;20414;-73
2023/05/10 08:13:48;;;;;;;9.70;6.13;;;;;;;;;;5060450;28;20036;-74
2023/05/10 08:16:15;;;;;;;7.50;5.70;;;;;;;;;;5057610;28;20040;-73
2023/05/10 08:18:41;;;;;;;6.60;5.78;;;;;;;;;;5056915;28;20064;-74
2023/05/10 08:21:07;;;;;;;9.07;5.47;;;;;;;;;;5033576;28;20121;-74
2023/05/10 08:23:33;;;;;;;5.75;5.10;;;;;;;;;;5048446;28;20053;-74
2023/05/10 08:26:00;;;;;;;6.65;5.20;;;;;;;;;;5051943;28;20088;-74
2023/05/10 08:28:26;;;;;;;7.20;5.07;;;;;;;;;;5064707;28;20114;-74
2023/05/10 08:30:53;;;;;;;5.57;4.53;;;;;;;;;;5071568;28;20044;-74
2023/05/10 08:33:19;;;;;;;5.88;4.70;;;;;;;;;;5066961;28;20037;-74
2023/05/10 08:35:45;;;;;;;5.70;4.80;;;;;;;;;;5072789;28;20041;-74
2023/05/10 08:38:12;;;;;;;7.13;5.00;;;;;;;;;;5066202;28;20041;-74
2023/05/10 08:40:40;;;;;;;5.88;4.78;;;;;;;;;;5052090;28;20475;-74
2023/05/10 08:43:07;;;;;;;5.18;4.55;;;;;;;;;;5065596;28;20499;-74
2023/05/10 08:45:37;;;;;;;6.00;5.07;;;;;;;;;;5066524;28;20119;-75
2023/05/10 08:48:05;;;;;;;7.93;6.20;;;;;;;;;;5073601;28;20049;-78
2023/05/10 08:50:31;;;;;;;6.85;5.38;;;;;;;;;;5037841;28;20048;-74
2023/05/10 08:52:59;;;;;;;7.25;5.55;;;;;;;;;;5060056;28;20036;-74
2023/05/10 08:55:25;;;;;;;7.55;5.82;;;;;;;;;;5076298;28;20049;-74
2023/05/10 08:57:51;;;;;;;8.32;6.10;;;;;;;;;;5076051;28;20051;-74
2023/05/10 09:00:18;;;;;;;7.78;6.05;;;;;;;;;;5064694;28;20547;-74
2023/05/10 09:02:47;;;;;;;6.68;5.70;;;;;;;;;;5060725;28;20064;-74
2023/05/10 09:05:15;;;;;;;6.60;5.10;;;;;;;;;;5064300;28;20078;-74
2023/05/10 09:07:42;;;;;;;6.07;5.22;;;;;;;;;;5061789;28;20067;-76
2023/05/10 09:10:09;;;;;;;7.85;5.65;;;;;;;;;;5051932;28;20055;-74
2023/05/10 09:12:35;;;;;;;8.27;6.93;;;;;;;;;;5072085;28;20115;-74
2023/05/10 09:15:02;;;;;;;8.98;7.10;;;;;;;;;;5071804;28;20106;-73
2023/05/10 09:17:29;;;;;;;9.70;7.57;;;;;;;;;;5038333;28;20045;-74
2023/05/10 09:19:59;;;;;;;12.32;7.90;;;;;;;;;;5070483;28;20068;-74
2023/05/10 09:22:25;;;;;;;12.05;7.80;;;;;;;;;;5056060;28;20099;-74
2023/05/10 09:25:05;;;;;;;10.32;7.40;;;;;;;;;;5069443;28;20044;-74
2023/05/10 09:27:31;;;;;;;10.25;7.28;;;;;;;;;;5054238;28;20049;-74
2023/05/10 09:29:57;;;;;;;11.93;8.38;;;;;;;;;;5069911;28;20048;-74
2023/05/10 09:32:36;;;;;;;12.07;7.78;;;;;;;;;;5040790;28;20044;-74
2023/05/10 09:35:11;;;;;;;11.40;8.43;;;;;;;;;;5070619;28;20116;-76
2023/05/10 09:37:41;;;;;;;11.88;9.18;;;;;;;;;;5049171;28;20048;-74
2023/05/10 09:40:08;;;;;;;13.43;9.43;;;;;;;;;;5068253;28;20055;-73
2023/05/10 09:42:35;;;;;;;16.02;9.93;;;;;;;;;;5070785;28;20048;-74
2023/05/10 09:45:04;;;;;;;12.68;10.15;;;;;;;;;;5065767;28;20312;-77
2023/05/10 09:47:32;;;;;;;14.93;10.95;;;;;;;;;;5072895;28;20052;-74
2023/05/10 09:50:03;;;;;;;14.15;9.82;;;;;;;;;;5061017;28;20047;-74
2023/05/10 09:52:29;;;;;;;13.65;9.93;;;;;;;;;;5072813;28;20040;-77
2023/05/10 09:54:55;;;;;;;12.77;10.32;;;;;;;;;;5064472;28;20106;-74
2023/05/10 09:57:22;;;;;;;14.35;10.65;;;;;;;;;;5056242;28;20045;-75
2023/05/10 09:59:49;;;;;;;16.08;11.82;;;;;;;;;;5064328;28;20037;-74
2023/05/10 10:02:15;;;;;;;16.95;12.98;;;;;;;;;;5066496;28;20052;-74
2023/05/10 10:04:42;;;;;;;16.13;10.43;;;;;;;;;;5068206;28;20045;-74
2023/05/10 10:07:08;;;;;;;13.57;10.05;;;;;;;;;;5068722;28;20040;-74
2023/05/10 10:09:34;;;;;;;13.20;10.88;;;;;;;;;;5053062;28;20041;-74
2023/05/10 10:12:04;;;;;;;17.80;11.30;;;;;;;;;;5056221;28;20048;-74
2023/05/10 10:14:30;;;;;;;15.77;11.80;;;;;;;;;;5073246;28;20090;-73
2023/05/10 10:16:57;;;;;;;15.73;10.73;;;;;;;;;;5074225;28;20040;-73
2023/05/10 10:19:23;;;;;;;17.33;11.68;;;;;;;;;;5069219;28;20429;-74
2023/05/10 10:21:50;;;;;;;17.40;11.10;;;;;;;;;;5068548;28;20047;-74
2023/05/10 10:24:16;;;;;;;16.98;11.65;;;;;;;;;;5067405;28;20041;-74
2023/05/10 10:26:43;;;;;;;15.32;11.10;;;;;;;;;;5066890;28;20040;-74
2023/05/10 10:29:24;;;;;;;17.52;12.43;;;;;;;;;;5066322;28;20036;-74
2023/05/10 10:32:11;;;;;;;17.75;11.88;;;;;;;;;;5055006;28;20067;-74
2023/05/10 10:34:38;;;;;;;16.17;10.27;;;;;;;;;;5066997;28;20044;-78
2023/05/10 10:37:06;;;;;;;13.48;10.32;;;;;;;;;;5074676;28;20036;-74
2023/05/10 10:39:32;;;;;;;14.00;10.73;;;;;;;;;;5073208;28;20048;-74
2023/05/10 10:41:59;;;;;;;12.23;9.60;;;;;;;;;;5036133;28;20048;-74
2023/05/10 10:44:33;;;;;;;13.65;9.32;;;;;;;;;;5052825;28;20052;-74
2023/05/10 10:47:11;;;;;;;12.10;9.30;;;;;;;;;;5051633;28;20128;-73
2023/05/10 10:49:41;;;;;;;10.90;8.40;;;;;;;;;;5054893;28;20361;-74
2023/05/10 10:52:16;;;;;;;11.77;9.45;;;;;;;;;;5072486;28;20041;-74
2023/05/10 10:54:47;;;;;;;12.40;9.55;;;;;;;;;;5073875;28;20097;-74
2023/05/10 10:57:14;;;;;;;9.60;8.48;;;;;;;;;;5055922;28;20389;-74
2023/05/10 10:59:43;;;;;;;11.52;8.15;;;;;;;;;;5057181;28;20052;-74
2023/05/10 11:02:10;;;;;;;10.57;8.07;;;;;;;;;;5031651;28;20044;-74
2023/05/10 11:04:46;;;;;;;10.73;8.48;;;;;;;;;;5059345;28;20461;-77
2023/05/10 11:07:18;;;;;;;9.68;7.88;;;;;;;;;;5059973;28;20044;-74
2023/05/10 11:09:44;;;;;;;11.23;8.43;;;;;;;;;;5054301;28;20048;-74
2023/05/10 11:12:11;;;;;;;10.00;8.55;;;;;;;;;;5064982;28;20049;-73
2023/05/10 11:14:37;;;;;;;9.77;8.05;;;;;;;;;;5055245;28;20045;-74
2023/05/10 11:17:22;;;;;;;10.77;8.45;;;;;;;;;;5061352;28;20037;-74
2023/05/10 11:20:09;;;;;;;12.83;8.90;;;;;;;;;;5053554;28;20389;-74
2023/05/10 11:22:53;;;;;;;9.90;8.13;;;;;;;;;;5055300;28;20072;-74
2023/05/10 11:25:20;;;;;;;8.02;7.07;;;;;;;;;;5068409;28;20119;-75
2023/05/10 11:27:48;;;;;;;8.60;7.00;;;;;;;;;;5055585;28;20487;-74
2023/05/10 11:30:14;;;;;;;9.05;7.05;;;;;;;;;;5041518;28;20115;-74
2023/05/10 11:32:41;;;;;;;7.63;6.20;;;;;;;;;;5055548;28;20541;-74
2023/05/10 11:35:07;;;;;;;9.02;6.70;;;;;;;;;;5069746;28;20075;-74
2023/05/10 11:37:34;;;;;;;9.18;7.55;;;;;;;;;;5052906;28;20040;-74
2023/05/10 11:40:00;;;;;;;10.90;8.35;;;;;;;;;;5058663;28;20183;-74
2023/05/10 11:42:27;;;;;;;9.40;7.53;;;;;;;;;;5064548;28;20056;-74
2023/05/10 11:44:54;;;;;;;10.23;8.15;;;;;;;;;;5066317;28;20114;-74
2023/05/10 11:47:20;;;;;;;9.73;7.00;;;;;;;;;;5065650;28;20064;-74
2023/05/10 11:49:46;;;;;;;9.45;7.53;;;;;;;;;;5060008;28;20151;-74
2023/05/10 11:52:12;;;;;;;9.20;7.38;;;;;;;;;;5064915;28;20044;-74
2023/05/10 11:54:45;;;;;;;9.95;7.50;;;;;;;;;;5045382;28;20091;-74
2023/05/10 11:57:11;;;;;;;10.70;8.15;;;;;;;;;;5053408;28;20120;-74
2023/05/10 11:59:37;;;;;;;10.20;8.27;;;;;;;;;;5035596;28;20069;-74
2023/05/10 12:02:03;;;;;;;11.20;8.05;;;;;;;;;;5062447;28;20076;-74
2023/05/10 12:04:30;;;;;;;12.07;8.50;;;;;;;;;;5050012;28;20356;-74
2023/05/10 12:06:57;;;;;;;12.55;10.43;;;;;;;;;;5065486;28;20044;-74
2023/05/10 12:09:23;;;;;;;13.05;10.18;;;;;;;;;;5073563;28;20049;-74
2023/05/10 12:11:49;;;;;;;11.50;8.90;;;;;;;;;;5072157;28;20044;-74
2023/05/10 12:14:16;;;;;;;13.13;10.30;;;;;;;;;;5072991;28;20059;-74
2023/05/10 12:16:43;;;;;;;12.75;9.40;;;;;;;;;;5059166;28;20052;-74
2023/05/10 12:19:09;;;;;;;11.02;9.38;;;;;;;;;;5066642;28;20120;-74
2023/05/10 12:21:35;;;;;;;12.23;9.75;;;;;;;;;;5053304;28;20056;-74
2023/05/10 12:24:03;;;;;;;10.85;9.38;;;;;;;;;;5067014;28;20037;-74
2023/05/10 12:26:29;;;;;;;13.88;9.55;;;;;;;;;;5054167;28;20064;-74
2023/05/10 12:28:56;;;;;;;12.73;9.63;;;;;;;;;;5065065;28;20045;-74
2023/05/10 12:31:22;;;;;;;13.10;10.32;;;;;;;;;;5056344;28;20039;-74
2023/05/10 12:33:49;;;;;;;13.20;9.93;;;;;;;;;;5062834;28;20043;-74
2023/05/10 12:36:15;;;;;;;12.35;9.90;;;;;;;;;;5057917;28;20052;-74
2023/05/10 12:38:47;;;;;;;12.25;9.98;;;;;;;;;;5072816;28;20037;-74
2023/05/10 12:41:14;;;;;;;12.00;10.07;;;;;;;;;;5057308;28;20049;-74
2023/05/10 12:43:40;;;;;;;12.60;9.90;;;;;;;;;;5053062;28;20041;-73
2023/05/10 12:46:06;;;;;;;13.70;9.45;;;;;;;;;;5058630;28;20111;-73
2023/05/10 12:48:33;;;;;;;12.45;9.68;;;;;;;;;;5066974;28;20556;-74
2023/05/10 12:51:00;;;;;;;14.00;10.30;;;;;;;;;;5062496;28;20057;-74
2023/05/10 12:53:26;;;;;;;15.52;10.98;;;;;;;;;;5058731;28;20383;-74
2023/05/10 12:55:53;;;;;;;15.20;10.60;;;;;;;;;;5057407;28;20415;-74
2023/05/10 12:58:19;;;;;;;15.93;11.57;;;;;;;;;;5053949;28;20501;-74
2023/05/10 13:00:45;;;;;;;15.43;11.95;;;;;;;;;;5062868;28;20037;-74
2023/05/10 13:03:12;;;;;;;17.23;12.48;;;;;;;;;;5054952;28;20121;-74
2023/05/10 13:05:38;;;;;;;17.33;12.30;;;;;;;;;;5062718;28;20041;-74
2023/05/10 13:08:04;;;;;;;17.40;12.23;;;;;;;;;;5068836;28;20052;-75
2023/05/10 13:10:31;;;;;;;15.85;11.35;;;;;;;;;;5059277;28;20048;-79
2023/05/10 13:12:57;;;;;;;13.35;10.60;;;;;;;;;;5062675;28;20040;-80
2023/05/10 13:15:23;;;;;;;12.65;10.05;;;;;;;;;;5060154;28;20049;-78
2023/05/10 13:17:49;;;;;;;14.45;10.68;;;;;;;;;;5070045;28;20040;-77
2023/05/10 13:20:16;;;;;;;12.98;9.60;;;;;;;;;;5057378;28;20053;-74
2023/05/10 13:22:44;;;;;;;13.27;10.25;;;;;;;;;;5068000;28;20037;-73
2023/05/10 13:25:11;;;;;;;11.85;10.30;;;;;;;;;;5069326;28;20052;-74
2023/05/10 13:27:37;;;;;;;11.52;9.70;;;;;;;;;;5055674;28;20069;-74
2023/05/10 13:30:04;;;;;;;10.75;8.90;;;;;;;;;;5069452;28;20040;-74
2023/05/10 13:32:33;;;;;;;10.00;8.73;;;;;;;;;;5057523;28;20418;-74
2023/05/10 13:34:59;;;;;;;10.80;8.98;;;;;;;;;;5052617;28;20045;-74
2023/05/10 13:37:25;;;;;;;10.05;8.02;;;;;;;;;;5057004;28;20483;-74
2023/05/10 13:39:51;;;;;;;10.95;8.20;;;;;;;;;;5059316;28;20372;-74
2023/05/10 13:42:17;;;;;;;10.13;8.73;;;;;;;;;;5064496;28;20040;-74
2023/05/10 13:44:43;;;;;;;10.20;8.13;;;;;;;;;;5075203;28;20195;-74
2023/05/10 13:47:10;;;;;;;9.25;7.93;;;;;;;;;;5075321;28;20071;-74
2023/05/10 13:49:36;;;;;;;8.43;7.10;;;;;;;;;;5059085;28;20052;-74
2023/05/10 13:52:06;;;;;;;8.18;7.38;;;;;;;;;;5047953;28;20511;-74
2023/05/10 13:54:32;;;;;;;8.07;6.85;;;;;;;;;;5055113;28;20175;-74
2023/05/10 13:56:58;;;;;;;8.43;7.30;;;;;;;;;;5040688;28;20410;-76
2023/05/10 13:59:25;;;;;;;7.95;7.07;;;;;;;;;;5058439;28;20174;-74
2023/05/10 14:01:51;;;;;;;8.77;7.88;;;;;;;;;;5055155;28;20044;-74
2023/05/10 14:04:17;;;;;;;8.55;7.45;;;;;;;;;;5065661;28;20491;-74
2023/05/10 14:06:43;;;;;;;10.65;8.45;;;;;;;;;;5054768;28;20550;-74
2023/05/10 14:09:09;;;;;;;9.95;8.75;;;;;;;;;;5072248;28;20049;-74
2023/05/10 14:11:35;;;;;;;9.43;8.43;;;;;;;;;;5074815;28;20105;-74
2023/05/10 14:14:02;;;;;;;10.25;8.70;;;;;;;;;;5074628;28;20119;-74
2023/05/10 14:16:29;;;;;;;12.05;9.10;;;;;;;;;;5056698;28;20506;-74
2023/05/10 14:18:55;;;;;;;12.32;9.90;;;;;;;;;;5073344;28;20115;-74
2023/05/10 14:21:21;;;;;;;11.48;9.55;;;;;;;;;;5073104;28;20052;-74
2023/05/10 14:23:47;;;;;;;13.63;10.30;;;;;;;;;;5069476;28;20036;-74
2023/05/10 14:26:13;;;;;;;10.43;8.50;;;;;;;;;;5074901;28;20036;-74
2023/05/10 14:28:39;;;;;;;10.45;9.15;;;;;;;;;;5074641;28;20076;-74
2023/05/10 14:31:05;;;;;;;9.80;8.27;;;;;;;;;;5060655;28;20045;-74
2023/05/10 14:33:32;;;;;;;8.65;7.75;;;;;;;;;;5072056;28;20083;-75